Timbo, Brazil
Current Conditions -  °F | °C
As of 2:25 PM on Wednesday 28 Jan 2015 (Local Time) from SBNF Reporting Station
Thunderstorm Thunderstorm  
Wind Chill: 86°   Ceiling: Unl
Heat Index: 102°   Visibility: 6mi
Dew Point: 81°   Wind: 13mph
Humidity: 84%   Direction: 60°ENE
Pressure: 29.8"   Gusts: NA
Location:  26.82°S, 49.27°W
Report Text: SBNF 281625Z 06011KT 9999 TS FEW030CB 30/27 Q1009
Loading
Personal Weather Stations






























Interactive Weather Map New forecast layout! Learn more

10-Day Weather Forecast

Advertisements
Track Severe Weather on mobile